createdAt,value
2023-02-04T00:00:31.049Z,97945.56
2023-02-04T00:02:59.123Z,97932.94
2023-02-04T00:05:26.966Z,97944.25
2023-02-04T00:07:54.987Z,97945.47
2023-02-04T00:10:22.774Z,97944.63
2023-02-04T00:12:50.673Z,97945.25
2023-02-04T00:15:18.465Z,97939.63
2023-02-04T00:17:47.550Z,97941.13
2023-02-04T00:20:15.556Z,97944.59
2023-02-04T00:22:43.299Z,97930.50
2023-02-04T00:25:11.108Z,97964.16
2023-02-04T00:27:39.353Z,97954.56
2023-02-04T00:30:09.003Z,97948.91
2023-02-04T00:32:36.915Z,97925.69
2023-02-04T00:35:06.630Z,97940.47
2023-02-04T00:37:34.699Z,97953.75
2023-02-04T00:40:02.502Z,97953.56
2023-02-04T00:42:30.323Z,97957.22
2023-02-04T00:44:58.066Z,97954.56
2023-02-04T00:47:26.048Z,97937.50
2023-02-04T00:49:54.007Z,97939.28
2023-02-04T00:52:23.248Z,97924.22
2023-02-04T00:54:51.076Z,97941.63
2023-02-04T00:57:19.949Z,97935.34
2023-02-04T00:59:48.166Z,97937.16
2023-02-04T01:02:17.686Z,97932.16
2023-02-04T01:04:46.079Z,97942.25
2023-02-04T01:07:13.900Z,97947.41
2023-02-04T01:09:42.989Z,97929.00
2023-02-04T01:12:10.941Z,97949.38
2023-02-04T01:14:38.754Z,97947.75
2023-02-04T01:17:06.576Z,97948.56
2023-02-04T01:19:34.350Z,97942.25
2023-02-04T01:22:02.169Z,97945.91
2023-02-04T01:24:30.085Z,97955.84
2023-02-04T01:27:00.608Z,97969.81
2023-02-04T01:29:28.300Z,97976.59
2023-02-04T01:31:56.525Z,97961.84
2023-02-04T01:34:25.940Z,97967.81
2023-02-04T01:36:53.693Z,97955.22
2023-02-04T01:39:21.571Z,97968.78
2023-02-04T01:41:49.511Z,97958.84
2023-02-04T01:44:18.732Z,97968.78
2023-02-04T01:46:46.674Z,97951.72
2023-02-04T01:49:14.586Z,97960.50
2023-02-04T01:51:42.929Z,97966.47
2023-02-04T01:54:12.919Z,97963.50
2023-02-04T01:56:44.070Z,97953.22
2023-02-04T01:59:13.380Z,97944.75
2023-02-04T02:01:44.719Z,97942.13
2023-02-04T02:04:14.847Z,97931.50
2023-02-04T02:06:45.757Z,97948.56
2023-02-04T02:09:13.893Z,97938.94
2023-02-04T02:11:41.761Z,97940.13
2023-02-04T02:14:09.752Z,97938.13
2023-02-04T02:16:37.910Z,97938.66
2023-02-04T02:19:11.536Z,97919.03
2023-02-04T02:21:43.622Z,97943.97
2023-02-04T02:24:26.180Z,97930.31
2023-02-04T02:26:54.619Z,97929.31
2023-02-04T02:29:22.775Z,97918.69
2023-02-04T02:31:51.819Z,97927.03
2023-02-04T02:34:20.489Z,97924.53
2023-02-04T02:36:48.507Z,97930.03
2023-02-04T02:39:16.306Z,97929.19
2023-02-04T02:41:45.545Z,97924.22
2023-02-04T02:44:14.861Z,97929.84
2023-02-04T02:46:42.972Z,97934.50
2023-02-04T02:49:15.735Z,97938.78
2023-02-04T02:51:43.729Z,97936.31
2023-02-04T02:54:22.525Z,97919.56
2023-02-04T02:56:52.206Z,97894.50
2023-02-04T02:59:20.649Z,97911.75
2023-02-04T03:01:52.254Z,97901.31
2023-02-04T03:04:21.438Z,97890.19
2023-02-04T03:06:49.676Z,97895.31
2023-02-04T03:09:17.834Z,97910.41
2023-02-04T03:11:45.695Z,97914.75
2023-02-04T03:14:15.050Z,97930.84
2023-02-04T03:16:44.354Z,97927.03
2023-02-04T03:19:13.150Z,97940.28
2023-02-04T03:21:41.678Z,97935.13
2023-02-04T03:24:09.559Z,97920.72
2023-02-04T03:26:37.585Z,97928.66
2023-02-04T03:29:08.033Z,97927.50
2023-02-04T03:31:37.864Z,97927.19
2023-02-04T03:34:06.097Z,97928.84
2023-02-04T03:36:34.249Z,97930.84
2023-02-04T03:39:01.999Z,97933.81
2023-02-04T03:41:30.107Z,97941.44
2023-02-04T03:43:57.967Z,97916.41
2023-02-04T03:46:25.961Z,97948.41
2023-02-04T03:48:55.263Z,97952.56
2023-02-04T03:51:23.637Z,97943.63
2023-02-04T03:53:51.442Z,97917.75
2023-02-04T03:56:19.396Z,97947.44
2023-02-04T03:58:47.121Z,97936.63
2023-02-04T04:01:14.933Z,97938.94
2023-02-04T04:03:42.809Z,97948.22
2023-02-04T04:06:12.136Z,97946.25
2023-02-04T04:08:40.636Z,97939.28
2023-02-04T04:11:08.469Z,97930.66
2023-02-04T04:13:36.769Z,97932.66
2023-02-04T04:16:05.440Z,97947.41
2023-02-04T04:18:33.502Z,97937.63
2023-02-04T04:21:01.374Z,97946.91
2023-02-04T04:23:30.485Z,97941.13
2023-02-04T04:25:58.230Z,97936.94
2023-02-04T04:28:25.922Z,97934.31
2023-02-04T04:30:53.679Z,97935.66
2023-02-04T04:33:21.513Z,97939.78
2023-02-04T04:35:49.258Z,97933.16
2023-02-04T04:38:17.127Z,97924.53
2023-02-04T04:40:46.533Z,97933.66
2023-02-04T04:43:14.294Z,97934.28
2023-02-04T04:45:42.122Z,97931.66
2023-02-04T04:48:09.906Z,97936.81
2023-02-04T04:50:37.931Z,97937.94
2023-02-04T04:53:06.576Z,97938.28
2023-02-04T04:55:34.343Z,97937.78
2023-02-04T04:58:03.815Z,97937.28
2023-02-04T05:00:32.053Z,97929.69
2023-02-04T05:03:00.516Z,97936.63
2023-02-04T05:05:29.003Z,97918.72
2023-02-04T05:07:57.588Z,97931.31
2023-02-04T05:10:25.371Z,97918.88
2023-02-04T05:12:53.119Z,97927.50
2023-02-04T05:15:22.252Z,97926.03
2023-02-04T05:17:50.041Z,97932.97
2023-02-04T05:20:18.062Z,97929.00
2023-02-04T05:22:45.835Z,97941.59
2023-02-04T05:25:13.944Z,97944.91
2023-02-04T05:27:41.815Z,97941.75
2023-02-04T05:30:11.762Z,97937.97
2023-02-04T05:32:41.689Z,97948.06
2023-02-04T05:35:09.980Z,97940.78
2023-02-04T05:37:37.758Z,97926.34
2023-02-04T05:40:06.379Z,97932.31
2023-02-04T05:42:34.187Z,97910.44
2023-02-04T05:45:02.004Z,97915.09
2023-02-04T05:47:29.772Z,97936.94
2023-02-04T05:49:58.870Z,97940.78
2023-02-04T05:52:27.108Z,97944.28
2023-02-04T05:54:54.885Z,97944.78
2023-02-04T05:57:22.655Z,97949.25
2023-02-04T05:59:50.450Z,97937.47
2023-02-04T06:02:18.478Z,97949.44
2023-02-04T06:04:46.316Z,97941.63
2023-02-04T06:07:15.444Z,97956.88
2023-02-04T06:09:43.292Z,97955.72
2023-02-04T06:12:11.053Z,97960.19
2023-02-04T06:14:38.871Z,97940.78
2023-02-04T06:17:07.103Z,97957.38
2023-02-04T06:19:34.936Z,97956.06
2023-02-04T06:22:02.725Z,97957.53
2023-02-04T06:24:31.884Z,97962.22
2023-02-04T06:26:59.762Z,97932.16
2023-02-04T06:29:27.547Z,97967.50
2023-02-04T06:31:55.379Z,97974.09
2023-02-04T06:34:23.204Z,97954.03
2023-02-04T06:36:51.102Z,97945.91
2023-02-04T06:39:19.012Z,97961.84
2023-02-04T06:41:48.160Z,97967.28
2023-02-04T06:44:15.944Z,97967.47
2023-02-04T06:46:43.676Z,97955.53
2023-02-04T06:49:11.486Z,97953.06
2023-02-04T06:51:39.466Z,97954.72
2023-02-04T06:54:07.259Z,97948.72
2023-02-04T06:56:35.048Z,97956.03
2023-02-04T06:59:04.166Z,97958.19
2023-02-04T07:01:31.947Z,97969.31
2023-02-04T07:03:59.884Z,97964.81
2023-02-04T07:06:27.709Z,97958.19
2023-02-04T07:08:55.509Z,97954.22
2023-02-04T07:11:23.309Z,97952.88
2023-02-04T07:13:51.129Z,97964.81
2023-02-04T07:16:20.218Z,97961.34
2023-02-04T07:18:48.038Z,97977.75
2023-02-04T07:21:16.374Z,97981.75
2023-02-04T07:23:44.174Z,97979.75
2023-02-04T07:26:11.946Z,97986.38
2023-02-04T07:28:41.210Z,97993.66
2023-02-04T07:31:09.052Z,97996.31
2023-02-04T07:33:38.329Z,97990.69
2023-02-04T07:36:06.309Z,97995.31
2023-02-04T07:38:34.522Z,97988.03
2023-02-04T07:41:02.323Z,97993.69
2023-02-04T07:43:30.334Z,97990.00
2023-02-04T07:45:58.158Z,97995.69
2023-02-04T07:48:26.279Z,98002.34
2023-02-04T07:50:55.404Z,97984.09
2023-02-04T07:53:25.393Z,98001.00
2023-02-04T07:55:53.145Z,97998.84
2023-02-04T07:58:21.011Z,97997.38
2023-02-04T08:00:48.986Z,97993.03
2023-02-04T08:03:16.863Z,97995.72
2023-02-04T08:05:44.574Z,97991.88
2023-02-04T08:08:13.712Z,97996.72
2023-02-04T08:10:41.543Z,97990.06
2023-02-04T08:13:09.355Z,98003.00
2023-02-04T08:15:37.274Z,97994.72
2023-02-04T08:18:05.860Z,98000.69
2023-02-04T08:20:34.329Z,98000.66
2023-02-04T08:23:02.340Z,97993.03
2023-02-04T08:25:31.459Z,97992.03
2023-02-04T08:27:59.391Z,98021.22
2023-02-04T08:30:27.282Z,98002.66
2023-02-04T08:32:55.060Z,98030.56
2023-02-04T08:35:22.883Z,98026.91
2023-02-04T08:37:50.672Z,98021.91
2023-02-04T08:40:20.336Z,98027.88
2023-02-04T08:42:49.967Z,98012.44
2023-02-04T08:45:18.117Z,98017.25
2023-02-04T08:47:45.917Z,98022.25
2023-02-04T08:50:13.666Z,98026.19
2023-02-04T08:52:41.405Z,98026.53
2023-02-04T08:55:10.056Z,98028.84
2023-02-04T08:57:38.167Z,98026.16
2023-02-04T09:00:08.159Z,98009.94
2023-02-04T09:02:35.952Z,98024.53
2023-02-04T09:05:04.290Z,98010.59
2023-02-04T09:07:32.142Z,98025.53
2023-02-04T09:10:00.126Z,98032.00
2023-02-04T09:12:27.987Z,98028.03
2023-02-04T09:14:55.781Z,98010.94
2023-02-04T09:17:25.783Z,98027.63
2023-02-04T09:19:53.517Z,98029.94
2023-02-04T09:22:21.223Z,98035.75
2023-02-04T09:24:49.044Z,98031.88
2023-02-04T09:27:16.860Z,98029.53
2023-02-04T09:29:44.693Z,98040.03
2023-02-04T09:32:12.562Z,98028.59
2023-02-04T09:34:41.680Z,98031.41
2023-02-04T09:37:09.479Z,98034.75
2023-02-04T09:39:37.274Z,98030.59
2023-02-04T09:42:05.261Z,98030.59
2023-02-04T09:44:33.325Z,98031.72
2023-02-04T09:47:02.356Z,98039.06
2023-02-04T09:49:30.239Z,98046.13
2023-02-04T09:52:00.629Z,98017.00
2023-02-04T09:54:28.339Z,98052.00
2023-02-04T09:56:57.404Z,98057.63
2023-02-04T09:59:28.905Z,98051.81
2023-02-04T10:02:00.774Z,98051.66
2023-02-04T10:04:29.847Z,98064.78
2023-02-04T10:06:59.578Z,98053.53
2023-02-04T10:09:27.786Z,98050.53
2023-02-04T10:11:55.833Z,98060.44
2023-02-04T10:14:25.422Z,98061.06
2023-02-04T10:16:59.128Z,98056.78
2023-02-04T10:19:29.963Z,98061.84
2023-02-04T10:21:59.679Z,98063.88
2023-02-04T10:24:30.675Z,98057.31
2023-02-04T10:27:09.449Z,98059.81
2023-02-04T10:29:37.503Z,98057.03
2023-02-04T10:32:05.434Z,98060.91
2023-02-04T10:34:37.931Z,98062.75
2023-02-04T10:37:20.368Z,98061.28
2023-02-04T10:39:48.827Z,98060.56
2023-02-04T10:42:23.530Z,98057.38
2023-02-04T10:44:51.897Z,98047.66
2023-02-04T10:47:21.641Z,98047.16
2023-02-04T10:49:57.497Z,98045.19
2023-02-04T10:52:35.040Z,98046.00
2023-02-04T10:55:04.527Z,98050.09
2023-02-04T10:57:35.472Z,98048.66
2023-02-04T11:00:05.726Z,98041.22
2023-02-04T11:02:43.381Z,98028.06
2023-02-04T11:05:17.075Z,98031.47
2023-02-04T11:07:46.744Z,98020.19
2023-02-04T11:10:16.970Z,98045.75
2023-02-04T11:12:47.673Z,98039.63
2023-02-04T11:15:50.217Z,98044.50
2023-02-04T11:18:31.211Z,98031.13
2023-02-04T11:21:00.577Z,98034.06
2023-02-04T11:23:36.331Z,98043.53
2023-02-04T11:26:08.311Z,98036.53
2023-02-04T11:28:51.727Z,98032.78
2023-02-04T11:31:45.755Z,98031.91
2023-02-04T11:34:32.882Z,98045.28
2023-02-04T11:37:16.709Z,98049.59
2023-02-04T11:39:47.729Z,98050.63
2023-02-04T11:42:22.576Z,98030.88
2023-02-04T11:44:52.828Z,98050.56
2023-02-04T11:47:21.156Z,98054.41
2023-02-04T11:49:55.739Z,98059.19
2023-02-04T11:52:23.634Z,98064.84
2023-02-04T11:54:57.033Z,98062.22
2023-02-04T11:57:24.896Z,98057.00
2023-02-04T11:59:53.009Z,98055.28
2023-02-04T12:02:23.383Z,98051.13
2023-02-04T12:04:56.788Z,98055.47
2023-02-04T12:07:29.538Z,98059.78
2023-02-04T12:09:59.191Z,98058.34
2023-02-04T12:12:29.912Z,98058.78
2023-02-04T12:14:59.548Z,98067.94
2023-02-04T12:17:27.283Z,98063.78
2023-02-04T12:19:55.098Z,98063.47
2023-02-04T12:22:22.833Z,98067.28
2023-02-04T12:24:52.435Z,98074.22
2023-02-04T12:27:22.451Z,98069.41
2023-02-04T12:29:50.467Z,98067.06
2023-02-04T12:32:18.291Z,98067.53
2023-02-04T12:34:46.092Z,98064.56
2023-02-04T12:37:13.867Z,98070.16
2023-02-04T12:39:41.629Z,98070.19
2023-02-04T12:42:09.468Z,98070.47
2023-02-04T12:44:38.729Z,98066.47
2023-02-04T12:47:06.687Z,98078.63
2023-02-04T12:49:34.446Z,98068.75
2023-02-04T12:52:03.542Z,98072.03
2023-02-04T12:54:31.248Z,98056.56
2023-02-04T12:56:59.447Z,98071.78
2023-02-04T12:59:27.347Z,98068.34
2023-02-04T13:01:56.791Z,98067.19
2023-02-04T13:04:24.684Z,98067.66
2023-02-04T13:06:52.494Z,98056.09
2023-02-04T13:09:20.318Z,98060.59
2023-02-04T13:11:48.157Z,98048.44
2023-02-04T13:14:16.010Z,98058.19
2023-02-04T13:16:43.866Z,98065.03
2023-02-04T13:19:13.302Z,98064.28
2023-02-04T13:21:41.114Z,98062.50
2023-02-04T13:24:09.060Z,98068.75
2023-02-04T13:26:36.958Z,98067.22
2023-02-04T13:29:04.828Z,98071.84
2023-02-04T13:31:32.688Z,98075.41
2023-02-04T13:34:00.526Z,98082.19
2023-02-04T13:36:30.429Z,98080.38
2023-02-04T13:39:00.091Z,98079.38
2023-02-04T13:41:28.315Z,98067.94
2023-02-04T13:43:56.246Z,98078.50
2023-02-04T13:46:24.176Z,98084.22
2023-02-04T13:48:52.019Z,98086.97
2023-02-04T13:51:20.101Z,98088.38
2023-02-04T13:53:49.228Z,98092.56
2023-02-04T13:56:16.977Z,98099.63
2023-02-04T13:58:45.488Z,98105.25
2023-02-04T14:01:14.748Z,98093.25
2023-02-04T14:03:43.839Z,98110.25
2023-02-04T14:06:12.714Z,98116.53
2023-02-04T14:08:40.702Z,98113.69
2023-02-04T14:11:09.850Z,98120.34
2023-02-04T14:13:37.876Z,98114.25
2023-02-04T14:16:09.238Z,98103.13
2023-02-04T14:18:37.106Z,98106.19
2023-02-04T14:21:04.981Z,98091.66
2023-02-04T14:23:32.709Z,98096.88
2023-02-04T14:26:00.450Z,98097.88
2023-02-04T14:28:29.614Z,98099.00
2023-02-04T14:30:57.494Z,98093.47
2023-02-04T14:33:25.302Z,98099.53
2023-02-04T14:35:53.108Z,98112.03
2023-02-04T14:38:21.076Z,98113.72
2023-02-04T14:40:48.925Z,98115.56
2023-02-04T14:43:16.660Z,98114.88
2023-02-04T14:45:46.135Z,98114.06
2023-02-04T14:48:13.959Z,98116.28
2023-02-04T14:50:41.789Z,98121.03
2023-02-04T14:53:09.571Z,98119.47
2023-02-04T14:55:37.371Z,98112.63
2023-02-04T14:58:05.291Z,98109.00
2023-02-04T15:00:33.312Z,98115.69
2023-02-04T15:03:02.985Z,98116.25
2023-02-04T15:05:30.766Z,98104.50
2023-02-04T15:07:58.977Z,98112.25
2023-02-04T15:10:26.852Z,98129.03
2023-02-04T15:12:55.824Z,98116.47
2023-02-04T15:15:23.669Z,98121.59
2023-02-04T15:17:52.573Z,98127.75
2023-02-04T15:20:21.868Z,98130.22
2023-02-04T15:22:51.818Z,98100.09
2023-02-04T15:25:20.034Z,98129.34
2023-02-04T15:27:47.820Z,98132.16
2023-02-04T15:30:16.082Z,98131.22
2023-02-04T15:32:45.876Z,98130.25
2023-02-04T15:35:14.028Z,98132.22
2023-02-04T15:37:50.258Z,98129.69
2023-02-04T15:40:18.719Z,98133.41
2023-02-04T15:42:46.555Z,98121.47
2023-02-04T15:45:14.527Z,98134.75
2023-02-04T15:47:42.265Z,98131.47
2023-02-04T15:50:12.737Z,98130.44
2023-02-04T15:52:40.456Z,98135.44
2023-02-04T15:55:10.115Z,98133.16
2023-02-04T15:57:38.482Z,98133.78
2023-02-04T16:00:07.710Z,98136.63
2023-02-04T16:02:35.549Z,98147.06
2023-02-04T16:05:03.409Z,98142.09
2023-02-04T16:07:31.240Z,98145.09
2023-02-04T16:09:59.026Z,98147.06
2023-02-04T16:12:29.449Z,98151.41
2023-02-04T16:14:57.463Z,98147.75
2023-02-04T16:17:25.220Z,98140.94
2023-02-04T16:19:52.995Z,98149.59
2023-02-04T16:22:20.840Z,98153.19
2023-02-04T16:24:48.717Z,98154.34
2023-02-04T16:27:17.238Z,98162.94
2023-02-04T16:29:46.452Z,98164.03
2023-02-04T16:32:14.961Z,98160.16
2023-02-04T16:34:43.017Z,98175.19
2023-02-04T16:37:10.877Z,98168.38
2023-02-04T16:39:39.109Z,98172.94
2023-02-04T16:42:08.894Z,98182.22
2023-02-04T16:44:38.664Z,98165.00
2023-02-04T16:47:09.526Z,98168.63
2023-02-04T16:49:37.838Z,98162.19
2023-02-04T16:52:06.099Z,98176.81
2023-02-04T16:54:35.399Z,98167.50
2023-02-04T16:57:03.836Z,98169.31
2023-02-04T16:59:32.706Z,98143.38
2023-02-04T17:02:00.975Z,98180.91
2023-02-04T17:04:32.324Z,98174.75
2023-02-04T17:07:00.750Z,98181.66
2023-02-04T17:09:28.531Z,98183.16
2023-02-04T17:11:56.643Z,98177.72
2023-02-04T17:14:25.045Z,98175.69
2023-02-04T17:16:52.917Z,98181.66
2023-02-04T17:19:21.072Z,98195.00
2023-02-04T17:21:50.253Z,98202.28
2023-02-04T17:24:18.078Z,98197.56
2023-02-04T17:26:45.857Z,98183.06
2023-02-04T17:29:17.125Z,98200.16
2023-02-04T17:31:45.624Z,98199.16
2023-02-04T17:34:13.482Z,98189.47
2023-02-04T17:36:41.277Z,98183.75
2023-02-04T17:39:10.409Z,98192.28
2023-02-04T17:41:38.236Z,98105.41
2023-02-04T17:44:06.613Z,98194.03
2023-02-04T17:46:35.427Z,98202.13
2023-02-04T17:49:03.372Z,98201.16
2023-02-04T17:51:31.720Z,98195.16
2023-02-04T17:54:02.938Z,98203.81
2023-02-04T17:56:32.805Z,98188.19
2023-02-04T17:59:00.673Z,98196.84
2023-02-04T18:01:28.453Z,98201.16
2023-02-04T18:03:56.595Z,98200.44
2023-02-04T18:06:28.421Z,98205.75
2023-02-04T18:09:01.669Z,98197.13
2023-02-04T18:11:36.896Z,98204.41
2023-02-04T18:14:14.492Z,98204.31
2023-02-04T18:16:42.356Z,98208.16
2023-02-04T18:19:19.031Z,98205.88
2023-02-04T18:21:47.369Z,98203.84
2023-02-04T18:24:18.843Z,98205.13
2023-02-04T18:26:50.112Z,98196.66
2023-02-04T18:29:32.520Z,98195.84
2023-02-04T18:32:02.968Z,98203.41
2023-02-04T18:34:36.270Z,98200.00
2023-02-04T18:37:27.618Z,98208.94
2023-02-04T18:39:58.683Z,98212.88
2023-02-04T18:42:28.379Z,98203.34
2023-02-04T18:44:56.801Z,98213.16
2023-02-04T18:47:31.508Z,98213.47
2023-02-04T18:50:01.349Z,98215.81
2023-02-04T18:52:37.512Z,98212.69
2023-02-04T18:55:23.382Z,98202.41
2023-02-04T18:57:52.522Z,98222.09
2023-02-04T19:00:26.201Z,98219.97
2023-02-04T19:02:56.576Z,98196.88
2023-02-04T19:05:28.727Z,98213.59
2023-02-04T19:08:30.284Z,98225.78
2023-02-04T19:11:00.838Z,98225.97
2023-02-04T19:13:40.419Z,98223.28
2023-02-04T19:16:21.477Z,98225.94
2023-02-04T19:18:49.449Z,98230.56
2023-02-04T19:21:27.144Z,98236.53
2023-02-04T19:24:00.300Z,98231.53
2023-02-04T19:26:35.881Z,98220.28
2023-02-04T19:29:44.916Z,98233.19
2023-02-04T19:32:27.378Z,98236.66
2023-02-04T19:34:58.474Z,98233.13
2023-02-04T19:37:28.488Z,98231.91
2023-02-04T19:39:57.202Z,98233.88
2023-02-04T19:42:30.386Z,98234.44
2023-02-04T19:45:02.125Z,98227.41
2023-02-04T19:47:36.148Z,98191.47
2023-02-04T19:50:21.780Z,98235.75
2023-02-04T19:52:52.232Z,98229.19
2023-02-04T19:55:33.443Z,98228.31
2023-02-04T19:58:15.354Z,98235.00
2023-02-04T20:01:00.702Z,98232.50
2023-02-04T20:03:42.058Z,98232.41
2023-02-04T20:06:30.080Z,98236.25
2023-02-04T20:09:00.218Z,98243.22
2023-02-04T20:11:45.141Z,98235.66
2023-02-04T20:14:27.214Z,98244.59
2023-02-04T20:16:58.540Z,98244.47
2023-02-04T20:19:37.757Z,98246.25
2023-02-04T20:22:45.635Z,98239.06
2023-02-04T20:25:47.134Z,98252.59
2023-02-04T20:28:36.955Z,98238.72
2023-02-04T20:31:19.441Z,98249.59
2023-02-04T20:33:51.690Z,98245.13
2023-02-04T20:36:42.361Z,98224.47
2023-02-04T20:39:41.356Z,98246.25
2023-02-04T20:42:29.860Z,98244.03
2023-02-04T20:45:12.500Z,98256.00
2023-02-04T20:47:40.352Z,98261.59
2023-02-04T20:50:41.444Z,98267.72
2023-02-04T20:53:28.254Z,98266.91
2023-02-04T20:56:03.670Z,98270.22
2023-02-04T20:58:37.099Z,98264.69
2023-02-04T21:01:20.519Z,98259.09
2023-02-04T21:03:50.239Z,98269.13
2023-02-04T21:06:25.855Z,98261.63
2023-02-04T21:08:55.120Z,98264.13
2023-02-04T21:11:23.155Z,98266.47
2023-02-04T21:13:52.256Z,98267.16
2023-02-04T21:16:20.108Z,98265.22
2023-02-04T21:18:48.120Z,98265.66
2023-02-04T21:21:16.271Z,98263.81
2023-02-04T21:23:45.471Z,98261.34
2023-02-04T21:26:13.232Z,98275.53
2023-02-04T21:28:41.175Z,98269.94
2023-02-04T21:31:09.954Z,98274.69
2023-02-04T21:33:37.793Z,98278.00
2023-02-04T21:36:06.470Z,98270.50
2023-02-04T21:38:34.202Z,98283.53
2023-02-04T21:41:03.428Z,98268.56
2023-02-04T21:43:32.184Z,98288.56
2023-02-04T21:46:00.505Z,98300.91
2023-02-04T21:48:28.340Z,98297.59
2023-02-04T21:50:56.128Z,98287.03
2023-02-04T21:53:24.539Z,98304.25
2023-02-04T21:55:52.270Z,98287.84
2023-02-04T21:58:21.357Z,98311.22
2023-02-04T22:00:49.143Z,98299.50
2023-02-04T22:03:17.471Z,98308.56
2023-02-04T22:05:47.975Z,98315.50
2023-02-04T22:08:15.781Z,98312.91
2023-02-04T22:10:43.640Z,98310.81
2023-02-04T22:13:11.431Z,98295.66
2023-02-04T22:15:40.611Z,98315.41
2023-02-04T22:18:08.432Z,98294.41
2023-02-04T22:20:38.594Z,98315.13
2023-02-04T22:23:07.266Z,98310.94
2023-02-04T22:25:35.232Z,98313.16
2023-02-04T22:28:03.135Z,98306.78
2023-02-04T22:30:30.957Z,98303.28
2023-02-04T22:33:01.580Z,98307.19
2023-02-04T22:35:29.931Z,98297.34
2023-02-04T22:37:59.996Z,98301.06
2023-02-04T22:40:28.906Z,98293.69
2023-02-04T22:42:56.677Z,98290.81
2023-02-04T22:45:24.446Z,98295.53
2023-02-04T22:47:52.256Z,98296.78
2023-02-04T22:50:21.406Z,98281.91
2023-02-04T22:52:49.233Z,98299.97
2023-02-04T22:55:17.086Z,98304.41
2023-02-04T22:57:44.886Z,98312.63
2023-02-04T23:00:14.042Z,98316.09
2023-02-04T23:02:41.768Z,98318.31
2023-02-04T23:05:12.873Z,98309.72
2023-02-04T23:07:42.092Z,98322.91
2023-02-04T23:10:10.011Z,98321.09
2023-02-04T23:12:37.820Z,98315.81
2023-02-04T23:15:06.393Z,98307.47
2023-02-04T23:17:34.173Z,98300.25
2023-02-04T23:20:01.914Z,98320.28
2023-02-04T23:22:29.750Z,98315.25
2023-02-04T23:24:59.512Z,98316.91
2023-02-04T23:27:27.399Z,98320.97
2023-02-04T23:29:55.246Z,98329.16
2023-02-04T23:32:24.382Z,98333.06
2023-02-04T23:34:52.188Z,98324.72
2023-02-04T23:37:20.256Z,98321.66
2023-02-04T23:39:47.977Z,98342.50
2023-02-04T23:42:17.062Z,98333.91
2023-02-04T23:44:44.858Z,98323.47
2023-02-04T23:47:12.599Z,98332.94
2023-02-04T23:49:40.334Z,98325.97
2023-02-04T23:52:08.396Z,98309.00
2023-02-04T23:54:36.421Z,98327.34
2023-02-04T23:57:04.712Z,98319.97
2023-02-04T23:59:36.111Z,98318.00
